sensor_id;sensor_type;location;lat;lon;timestamp;P1;durP1;ratioP1;P2;durP2;ratioP2
13321;SDS011;6730;46.248;6.930;2023-02-18T00:01:14;4.75;;;2.88;;
13321;SDS011;6730;46.248;6.930;2023-02-18T00:03:41;6.55;;;3.63;;
13321;SDS011;6730;46.248;6.930;2023-02-18T00:08:41;5.63;;;2.80;;
13321;SDS011;6730;46.248;6.930;2023-02-18T00:11:08;3.50;;;2.17;;
13321;SDS011;6730;46.248;6.930;2023-02-18T00:13:34;3.28;;;2.28;;
13321;SDS011;6730;46.248;6.930;2023-02-18T00:16:04;3.05;;;1.98;;
13321;SDS011;6730;46.248;6.930;2023-02-18T00:18:32;3.03;;;1.90;;
13321;SDS011;6730;46.248;6.930;2023-02-18T00:20:58;3.72;;;1.52;;
13321;SDS011;6730;46.248;6.930;2023-02-18T00:23:24;4.28;;;1.58;;
13321;SDS011;6730;46.248;6.930;2023-02-18T00:25:58;3.03;;;1.80;;
13321;SDS011;6730;46.248;6.930;2023-02-18T00:28:28;1.85;;;1.52;;
13321;SDS011;6730;46.248;6.930;2023-02-18T00:30:54;2.08;;;1.40;;
13321;SDS011;6730;46.248;6.930;2023-02-18T00:33:20;3.63;;;2.00;;
13321;SDS011;6730;46.248;6.930;2023-02-18T00:35:46;4.63;;;1.95;;
13321;SDS011;6730;46.248;6.930;2023-02-18T00:38:12;2.50;;;1.70;;
13321;SDS011;6730;46.248;6.930;2023-02-18T00:40:38;1.95;;;1.58;;
13321;SDS011;6730;46.248;6.930;2023-02-18T00:43:04;2.70;;;1.60;;
13321;SDS011;6730;46.248;6.930;2023-02-18T00:45:30;3.97;;;1.80;;
13321;SDS011;6730;46.248;6.930;2023-02-18T00:47:55;3.85;;;1.50;;
13321;SDS011;6730;46.248;6.930;2023-02-18T00:50:21;3.03;;;1.70;;
13321;SDS011;6730;46.248;6.930;2023-02-18T00:52:47;4.20;;;1.65;;
13321;SDS011;6730;46.248;6.930;2023-02-18T00:55:13;2.03;;;1.80;;
13321;SDS011;6730;46.248;6.930;2023-02-18T00:57:39;2.33;;;1.48;;
13321;SDS011;6730;46.248;6.930;2023-02-18T01:00:04;3.08;;;1.30;;
13321;SDS011;6730;46.248;6.930;2023-02-18T01:02:31;1.60;;;1.33;;
13321;SDS011;6730;46.248;6.930;2023-02-18T01:04:57;3.65;;;1.60;;
13321;SDS011;6730;46.248;6.930;2023-02-18T01:07:22;2.47;;;1.58;;
13321;SDS011;6730;46.248;6.930;2023-02-18T01:09:48;3.22;;;1.70;;
13321;SDS011;6730;46.248;6.930;2023-02-18T01:12:14;2.70;;;1.67;;
13321;SDS011;6730;46.248;6.930;2023-02-18T01:14:40;5.05;;;1.58;;
13321;SDS011;6730;46.248;6.930;2023-02-18T01:17:07;2.40;;;1.60;;
13321;SDS011;6730;46.248;6.930;2023-02-18T01:19:32;3.67;;;1.70;;
13321;SDS011;6730;46.248;6.930;2023-02-18T01:21:58;2.15;;;1.70;;
13321;SDS011;6730;46.248;6.930;2023-02-18T01:24:24;3.83;;;1.75;;
13321;SDS011;6730;46.248;6.930;2023-02-18T01:26:49;1.42;;;1.17;;
13321;SDS011;6730;46.248;6.930;2023-02-18T01:29:15;1.83;;;1.20;;
13321;SDS011;6730;46.248;6.930;2023-02-18T01:31:41;1.67;;;1.35;;
13321;SDS011;6730;46.248;6.930;2023-02-18T01:34:07;3.47;;;1.70;;
13321;SDS011;6730;46.248;6.930;2023-02-18T01:36:33;2.38;;;1.65;;
13321;SDS011;6730;46.248;6.930;2023-02-18T01:38:58;2.50;;;1.42;;
13321;SDS011;6730;46.248;6.930;2023-02-18T01:41:24;2.38;;;1.30;;
13321;SDS011;6730;46.248;6.930;2023-02-18T01:46:39;2.85;;;1.67;;
13321;SDS011;6730;46.248;6.930;2023-02-18T01:49:04;2.53;;;1.30;;
13321;SDS011;6730;46.248;6.930;2023-02-18T01:51:51;2.47;;;1.40;;
13321;SDS011;6730;46.248;6.930;2023-02-18T01:54:30;4.90;;;1.70;;
13321;SDS011;6730;46.248;6.930;2023-02-18T02:02:23;2.83;;;1.55;;
13321;SDS011;6730;46.248;6.930;2023-02-18T02:04:51;2.47;;;1.58;;
13321;SDS011;6730;46.248;6.930;2023-02-18T02:07:17;1.58;;;1.30;;
13321;SDS011;6730;46.248;6.930;2023-02-18T02:09:45;2.55;;;1.75;;
13321;SDS011;6730;46.248;6.930;2023-02-18T02:39:24;3.35;;;1.83;;
13321;SDS011;6730;46.248;6.930;2023-02-18T02:42:18;3.08;;;1.50;;
13321;SDS011;6730;46.248;6.930;2023-02-18T02:44:54;1.42;;;1.25;;
13321;SDS011;6730;46.248;6.930;2023-02-18T02:47:40;1.98;;;1.30;;
13321;SDS011;6730;46.248;6.930;2023-02-18T02:50:33;2.35;;;1.38;;
13321;SDS011;6730;46.248;6.930;2023-02-18T02:53:05;3.88;;;1.50;;
13321;SDS011;6730;46.248;6.930;2023-02-18T02:55:37;1.48;;;1.30;;
13321;SDS011;6730;46.248;6.930;2023-02-18T02:58:02;1.42;;;1.27;;
13321;SDS011;6730;46.248;6.930;2023-02-18T03:12:00;1.50;;;1.33;;
13321;SDS011;6730;46.248;6.930;2023-02-18T03:14:39;2.13;;;1.10;;
13321;SDS011;6730;46.248;6.930;2023-02-18T03:17:14;2.00;;;1.38;;
13321;SDS011;6730;46.248;6.930;2023-02-18T03:22:59;1.52;;;1.30;;
13321;SDS011;6730;46.248;6.930;2023-02-18T03:25:31;1.67;;;1.23;;
13321;SDS011;6730;46.248;6.930;2023-02-18T03:28:00;2.63;;;1.10;;
13321;SDS011;6730;46.248;6.930;2023-02-18T03:30:32;2.58;;;1.50;;
13321;SDS011;6730;46.248;6.930;2023-02-18T03:33:06;1.65;;;1.33;;
13321;SDS011;6730;46.248;6.930;2023-02-18T03:35:35;1.52;;;1.20;;
13321;SDS011;6730;46.248;6.930;2023-02-18T03:38:04;3.65;;;1.40;;
13321;SDS011;6730;46.248;6.930;2023-02-18T03:40:35;2.58;;;1.60;;
13321;SDS011;6730;46.248;6.930;2023-02-18T03:43:01;4.03;;;1.50;;
13321;SDS011;6730;46.248;6.930;2023-02-18T03:45:27;3.25;;;1.48;;
13321;SDS011;6730;46.248;6.930;2023-02-18T03:47:52;1.35;;;1.10;;
13321;SDS011;6730;46.248;6.930;2023-02-18T03:50:18;1.48;;;1.00;;
13321;SDS011;6730;46.248;6.930;2023-02-18T03:52:44;1.60;;;1.30;;
13321;SDS011;6730;46.248;6.930;2023-02-18T03:55:10;1.80;;;1.17;;
13321;SDS011;6730;46.248;6.930;2023-02-18T03:57:36;3.05;;;1.50;;
13321;SDS011;6730;46.248;6.930;2023-02-18T04:00:02;3.28;;;1.20;;
13321;SDS011;6730;46.248;6.930;2023-02-18T04:02:30;2.22;;;1.27;;
13321;SDS011;6730;46.248;6.930;2023-02-18T04:04:56;1.20;;;1.10;;
13321;SDS011;6730;46.248;6.930;2023-02-18T04:07:21;1.40;;;1.17;;
13321;SDS011;6730;46.248;6.930;2023-02-18T04:09:47;2.20;;;1.35;;
13321;SDS011;6730;46.248;6.930;2023-02-18T04:12:13;1.85;;;1.15;;
13321;SDS011;6730;46.248;6.930;2023-02-18T04:14:39;1.83;;;1.30;;
13321;SDS011;6730;46.248;6.930;2023-02-18T04:17:05;1.25;;;1.00;;
13321;SDS011;6730;46.248;6.930;2023-02-18T04:19:30;1.73;;;1.27;;
13321;SDS011;6730;46.248;6.930;2023-02-18T04:21:56;1.52;;;1.30;;
13321;SDS011;6730;46.248;6.930;2023-02-18T04:24:22;2.05;;;1.40;;
13321;SDS011;6730;46.248;6.930;2023-02-18T04:26:47;1.85;;;1.30;;
13321;SDS011;6730;46.248;6.930;2023-02-18T04:29:13;2.40;;;1.25;;
13321;SDS011;6730;46.248;6.930;2023-02-18T04:31:38;1.40;;;1.02;;
13321;SDS011;6730;46.248;6.930;2023-02-18T04:34:04;1.70;;;1.40;;
13321;SDS011;6730;46.248;6.930;2023-02-18T04:36:30;1.70;;;1.00;;
13321;SDS011;6730;46.248;6.930;2023-02-18T04:38:55;2.78;;;1.25;;
13321;SDS011;6730;46.248;6.930;2023-02-18T04:41:21;1.58;;;1.15;;
13321;SDS011;6730;46.248;6.930;2023-02-18T04:43:47;1.38;;;1.15;;
13321;SDS011;6730;46.248;6.930;2023-02-18T04:46:12;1.30;;;1.20;;
13321;SDS011;6730;46.248;6.930;2023-02-18T04:48:38;1.90;;;1.27;;
13321;SDS011;6730;46.248;6.930;2023-02-18T04:51:04;1.35;;;1.08;;
13321;SDS011;6730;46.248;6.930;2023-02-18T04:53:30;2.35;;;1.05;;
13321;SDS011;6730;46.248;6.930;2023-02-18T04:55:55;2.03;;;1.40;;
13321;SDS011;6730;46.248;6.930;2023-02-18T04:58:21;3.65;;;1.10;;
13321;SDS011;6730;46.248;6.930;2023-02-18T05:00:47;1.20;;;1.10;;
13321;SDS011;6730;46.248;6.930;2023-02-18T05:03:12;1.48;;;1.27;;
13321;SDS011;6730;46.248;6.930;2023-02-18T05:05:38;1.45;;;1.27;;
13321;SDS011;6730;46.248;6.930;2023-02-18T05:08:05;3.00;;;1.40;;
13321;SDS011;6730;46.248;6.930;2023-02-18T05:10:31;1.10;;;0.93;;
13321;SDS011;6730;46.248;6.930;2023-02-18T05:12:57;1.42;;;1.17;;
13321;SDS011;6730;46.248;6.930;2023-02-18T05:15:23;1.33;;;0.95;;
13321;SDS011;6730;46.248;6.930;2023-02-18T05:17:49;1.30;;;1.20;;
13321;SDS011;6730;46.248;6.930;2023-02-18T05:20:14;1.30;;;1.10;;
13321;SDS011;6730;46.248;6.930;2023-02-18T05:22:40;1.70;;;0.88;;
13321;SDS011;6730;46.248;6.930;2023-02-18T05:25:06;3.42;;;1.00;;
13321;SDS011;6730;46.248;6.930;2023-02-18T05:27:31;3.60;;;1.40;;
13321;SDS011;6730;46.248;6.930;2023-02-18T05:29:57;2.13;;;1.30;;
13321;SDS011;6730;46.248;6.930;2023-02-18T05:32:23;1.60;;;1.00;;
13321;SDS011;6730;46.248;6.930;2023-02-18T05:34:48;2.90;;;1.38;;
13321;SDS011;6730;46.248;6.930;2023-02-18T05:37:14;1.30;;;1.05;;
13321;SDS011;6730;46.248;6.930;2023-02-18T05:39:40;2.58;;;1.02;;
13321;SDS011;6730;46.248;6.930;2023-02-18T05:42:06;1.77;;;1.00;;
13321;SDS011;6730;46.248;6.930;2023-02-18T05:44:32;1.58;;;1.30;;
13321;SDS011;6730;46.248;6.930;2023-02-18T05:46:58;2.70;;;1.15;;
13321;SDS011;6730;46.248;6.930;2023-02-18T05:49:26;0.98;;;0.90;;
13321;SDS011;6730;46.248;6.930;2023-02-18T05:51:53;1.58;;;1.23;;
13321;SDS011;6730;46.248;6.930;2023-02-18T05:54:19;1.00;;;0.95;;
13321;SDS011;6730;46.248;6.930;2023-02-18T05:56:45;5.32;;;1.13;;
13321;SDS011;6730;46.248;6.930;2023-02-18T05:59:11;2.70;;;1.00;;
13321;SDS011;6730;46.248;6.930;2023-02-18T06:01:36;1.38;;;1.15;;
13321;SDS011;6730;46.248;6.930;2023-02-18T06:04:02;1.58;;;1.10;;
13321;SDS011;6730;46.248;6.930;2023-02-18T06:06:28;2.75;;;0.90;;
13321;SDS011;6730;46.248;6.930;2023-02-18T06:08:53;1.20;;;1.02;;
13321;SDS011;6730;46.248;6.930;2023-02-18T06:11:19;2.00;;;0.95;;
13321;SDS011;6730;46.248;6.930;2023-02-18T06:13:45;1.40;;;1.27;;
13321;SDS011;6730;46.248;6.930;2023-02-18T06:16:11;2.42;;;1.02;;
13321;SDS011;6730;46.248;6.930;2023-02-18T06:18:37;2.67;;;1.17;;
13321;SDS011;6730;46.248;6.930;2023-02-18T06:21:02;1.30;;;0.90;;
13321;SDS011;6730;46.248;6.930;2023-02-18T06:23:28;1.27;;;1.10;;
13321;SDS011;6730;46.248;6.930;2023-02-18T06:25:54;1.75;;;0.95;;
13321;SDS011;6730;46.248;6.930;2023-02-18T06:28:20;1.38;;;1.08;;
13321;SDS011;6730;46.248;6.930;2023-02-18T06:30:45;1.10;;;0.98;;
13321;SDS011;6730;46.248;6.930;2023-02-18T06:33:11;1.17;;;0.82;;
13321;SDS011;6730;46.248;6.930;2023-02-18T06:35:37;1.58;;;0.93;;
13321;SDS011;6730;46.248;6.930;2023-02-18T06:38:02;1.25;;;0.88;;
13321;SDS011;6730;46.248;6.930;2023-02-18T06:40:28;1.08;;;0.90;;
13321;SDS011;6730;46.248;6.930;2023-02-18T06:42:54;3.25;;;1.00;;
13321;SDS011;6730;46.248;6.930;2023-02-18T06:45:20;0.95;;;0.80;;
13321;SDS011;6730;46.248;6.930;2023-02-18T06:47:46;1.50;;;0.90;;
13321;SDS011;6730;46.248;6.930;2023-02-18T06:50:12;1.05;;;0.80;;
13321;SDS011;6730;46.248;6.930;2023-02-18T06:52:38;1.52;;;0.75;;
13321;SDS011;6730;46.248;6.930;2023-02-18T06:55:04;2.15;;;1.02;;
13321;SDS011;6730;46.248;6.930;2023-02-18T06:57:32;1.48;;;0.80;;
13321;SDS011;6730;46.248;6.930;2023-02-18T07:00:00;0.98;;;0.80;;
13321;SDS011;6730;46.248;6.930;2023-02-18T07:02:26;1.45;;;0.90;;
13321;SDS011;6730;46.248;6.930;2023-02-18T07:04:52;0.73;;;0.70;;
13321;SDS011;6730;46.248;6.930;2023-02-18T07:07:19;0.63;;;0.60;;
13321;SDS011;6730;46.248;6.930;2023-02-18T07:09:44;0.80;;;0.60;;
13321;SDS011;6730;46.248;6.930;2023-02-18T07:12:10;0.73;;;0.47;;
13321;SDS011;6730;46.248;6.930;2023-02-18T07:14:35;1.50;;;0.90;;
13321;SDS011;6730;46.248;6.930;2023-02-18T07:17:01;1.92;;;0.98;;
13321;SDS011;6730;46.248;6.930;2023-02-18T07:19:27;0.73;;;0.73;;
13321;SDS011;6730;46.248;6.930;2023-02-18T07:21:52;0.88;;;0.80;;
13321;SDS011;6730;46.248;6.930;2023-02-18T07:24:21;2.33;;;1.10;;
13321;SDS011;6730;46.248;6.930;2023-02-18T07:26:47;1.80;;;1.23;;
13321;SDS011;6730;46.248;6.930;2023-02-18T07:29:13;2.45;;;0.93;;
13321;SDS011;6730;46.248;6.930;2023-02-18T07:31:39;0.75;;;0.75;;
13321;SDS011;6730;46.248;6.930;2023-02-18T07:34:04;1.52;;;1.00;;
13321;SDS011;6730;46.248;6.930;2023-02-18T07:36:30;1.15;;;0.90;;
13321;SDS011;6730;46.248;6.930;2023-02-18T07:38:55;1.90;;;1.23;;
13321;SDS011;6730;46.248;6.930;2023-02-18T07:41:21;1.48;;;1.10;;
13321;SDS011;6730;46.248;6.930;2023-02-18T07:43:47;1.08;;;0.90;;
13321;SDS011;6730;46.248;6.930;2023-02-18T07:46:13;1.02;;;0.85;;
13321;SDS011;6730;46.248;6.930;2023-02-18T07:48:40;2.10;;;1.00;;
13321;SDS011;6730;46.248;6.930;2023-02-18T07:51:09;4.03;;;1.27;;
13321;SDS011;6730;46.248;6.930;2023-02-18T07:53:36;1.67;;;1.30;;
13321;SDS011;6730;46.248;6.930;2023-02-18T07:56:02;2.60;;;1.38;;
13321;SDS011;6730;46.248;6.930;2023-02-18T07:58:30;2.53;;;1.15;;
13321;SDS011;6730;46.248;6.930;2023-02-18T08:00:57;1.48;;;1.38;;
13321;SDS011;6730;46.248;6.930;2023-02-18T08:03:25;2.15;;;1.23;;
13321;SDS011;6730;46.248;6.930;2023-02-18T08:05:53;2.72;;;1.40;;
13321;SDS011;6730;46.248;6.930;2023-02-18T08:08:21;2.10;;;1.23;;
13321;SDS011;6730;46.248;6.930;2023-02-18T08:10:49;2.28;;;1.30;;
13321;SDS011;6730;46.248;6.930;2023-02-18T08:13:15;2.47;;;1.60;;
13321;SDS011;6730;46.248;6.930;2023-02-18T08:15:41;1.42;;;1.33;;
13321;SDS011;6730;46.248;6.930;2023-02-18T08:18:08;3.40;;;1.42;;
13321;SDS011;6730;46.248;6.930;2023-02-18T08:20:40;1.70;;;1.40;;
13321;SDS011;6730;46.248;6.930;2023-02-18T08:23:05;2.00;;;1.70;;
13321;SDS011;6730;46.248;6.930;2023-02-18T08:25:31;2.10;;;1.77;;
13321;SDS011;6730;46.248;6.930;2023-02-18T08:27:58;3.17;;;1.73;;
13321;SDS011;6730;46.248;6.930;2023-02-18T08:30:24;3.17;;;1.75;;
13321;SDS011;6730;46.248;6.930;2023-02-18T08:32:50;1.60;;;1.30;;
13321;SDS011;6730;46.248;6.930;2023-02-18T08:35:16;1.38;;;1.27;;
13321;SDS011;6730;46.248;6.930;2023-02-18T08:37:42;1.90;;;1.40;;
13321;SDS011;6730;46.248;6.930;2023-02-18T08:40:10;3.33;;;1.83;;
13321;SDS011;6730;46.248;6.930;2023-02-18T08:42:36;2.30;;;1.75;;
13321;SDS011;6730;46.248;6.930;2023-02-18T08:45:02;2.95;;;1.30;;
13321;SDS011;6730;46.248;6.930;2023-02-18T08:47:29;6.40;;;1.73;;
13321;SDS011;6730;46.248;6.930;2023-02-18T08:49:54;3.53;;;1.63;;
13321;SDS011;6730;46.248;6.930;2023-02-18T08:52:20;2.47;;;1.90;;
13321;SDS011;6730;46.248;6.930;2023-02-18T08:54:46;2.75;;;1.45;;
13321;SDS011;6730;46.248;6.930;2023-02-18T08:57:12;2.60;;;1.60;;
13321;SDS011;6730;46.248;6.930;2023-02-18T08:59:37;3.63;;;1.77;;
13321;SDS011;6730;46.248;6.930;2023-02-18T09:02:03;1.80;;;1.60;;
13321;SDS011;6730;46.248;6.930;2023-02-18T09:04:29;3.60;;;1.70;;
13321;SDS011;6730;46.248;6.930;2023-02-18T09:06:55;3.72;;;2.00;;
13321;SDS011;6730;46.248;6.930;2023-02-18T09:09:21;2.03;;;1.80;;
13321;SDS011;6730;46.248;6.930;2023-02-18T09:11:47;4.00;;;1.88;;
13321;SDS011;6730;46.248;6.930;2023-02-18T09:14:14;3.00;;;1.77;;
13321;SDS011;6730;46.248;6.930;2023-02-18T09:16:40;1.88;;;1.52;;
13321;SDS011;6730;46.248;6.930;2023-02-18T09:19:06;2.25;;;1.55;;
13321;SDS011;6730;46.248;6.930;2023-02-18T09:21:32;3.83;;;1.88;;
13321;SDS011;6730;46.248;6.930;2023-02-18T09:23:58;3.67;;;2.17;;
13321;SDS011;6730;46.248;6.930;2023-02-18T09:26:24;2.83;;;2.00;;
13321;SDS011;6730;46.248;6.930;2023-02-18T09:28:51;4.28;;;2.10;;
13321;SDS011;6730;46.248;6.930;2023-02-18T09:31:19;2.25;;;2.00;;
13321;SDS011;6730;46.248;6.930;2023-02-18T09:33:51;3.45;;;2.28;;
13321;SDS011;6730;46.248;6.930;2023-02-18T09:36:18;5.43;;;2.65;;
13321;SDS011;6730;46.248;6.930;2023-02-18T09:38:44;4.15;;;2.63;;
13321;SDS011;6730;46.248;6.930;2023-02-18T09:41:44;3.55;;;2.20;;
13321;SDS011;6730;46.248;6.930;2023-02-18T09:44:12;2.92;;;2.35;;
13321;SDS011;6730;46.248;6.930;2023-02-18T09:46:40;12.02;;;2.60;;
13321;SDS011;6730;46.248;6.930;2023-02-18T09:49:18;3.97;;;2.47;;
13321;SDS011;6730;46.248;6.930;2023-02-18T09:51:46;4.30;;;2.20;;
13321;SDS011;6730;46.248;6.930;2023-02-18T09:54:13;3.50;;;2.58;;
13321;SDS011;6730;46.248;6.930;2023-02-18T09:56:41;4.63;;;2.63;;
13321;SDS011;6730;46.248;6.930;2023-02-18T09:59:10;4.93;;;2.50;;
13321;SDS011;6730;46.248;6.930;2023-02-18T10:01:40;2.30;;;2.10;;
13321;SDS011;6730;46.248;6.930;2023-02-18T10:04:14;6.15;;;2.97;;
13321;SDS011;6730;46.248;6.930;2023-02-18T10:06:49;4.53;;;2.22;;
13321;SDS011;6730;46.248;6.930;2023-02-18T10:11:51;5.47;;;2.55;;
13321;SDS011;6730;46.248;6.930;2023-02-18T10:14:21;3.17;;;2.03;;
13321;SDS011;6730;46.248;6.930;2023-02-18T10:16:47;3.88;;;2.08;;
13321;SDS011;6730;46.248;6.930;2023-02-18T10:21:59;3.65;;;1.98;;
13321;SDS011;6730;46.248;6.930;2023-02-18T10:24:29;3.67;;;1.95;;
13321;SDS011;6730;46.248;6.930;2023-02-18T10:27:01;3.00;;;2.40;;
13321;SDS011;6730;46.248;6.930;2023-02-18T10:29:30;2.97;;;2.00;;
13321;SDS011;6730;46.248;6.930;2023-02-18T10:34:51;2.95;;;2.03;;
13321;SDS011;6730;46.248;6.930;2023-02-18T10:51:07;5.55;;;2.10;;
13321;SDS011;6730;46.248;6.930;2023-02-18T10:53:41;3.25;;;2.42;;
13321;SDS011;6730;46.248;6.930;2023-02-18T10:56:28;4.05;;;2.53;;
13321;SDS011;6730;46.248;6.930;2023-02-18T10:59:04;2.97;;;2.15;;
13321;SDS011;6730;46.248;6.930;2023-02-18T11:01:37;4.53;;;2.55;;
13321;SDS011;6730;46.248;6.930;2023-02-18T11:04:24;4.93;;;2.13;;
13321;SDS011;6730;46.248;6.930;2023-02-18T11:07:01;3.10;;;2.10;;
13321;SDS011;6730;46.248;6.930;2023-02-18T11:12:22;3.90;;;2.63;;
13321;SDS011;6730;46.248;6.930;2023-02-18T11:17:37;3.67;;;2.47;;
13321;SDS011;6730;46.248;6.930;2023-02-18T11:20:25;3.38;;;2.47;;
13321;SDS011;6730;46.248;6.930;2023-02-18T11:22:51;3.30;;;2.35;;
13321;SDS011;6730;46.248;6.930;2023-02-18T11:25:25;4.80;;;2.50;;
13321;SDS011;6730;46.248;6.930;2023-02-18T11:27:57;8.50;;;2.83;;
13321;SDS011;6730;46.248;6.930;2023-02-18T11:30:46;3.53;;;2.72;;
13321;SDS011;6730;46.248;6.930;2023-02-18T11:35:50;4.15;;;2.28;;
13321;SDS011;6730;46.248;6.930;2023-02-18T11:38:25;5.90;;;2.80;;
13321;SDS011;6730;46.248;6.930;2023-02-18T11:41:08;4.93;;;2.80;;
13321;SDS011;6730;46.248;6.930;2023-02-18T11:43:36;6.22;;;2.80;;
13321;SDS011;6730;46.248;6.930;2023-02-18T11:46:07;6.82;;;2.78;;
13321;SDS011;6730;46.248;6.930;2023-02-18T11:48:43;2.95;;;2.42;;
13321;SDS011;6730;46.248;6.930;2023-02-18T11:51:14;4.68;;;2.47;;
13321;SDS011;6730;46.248;6.930;2023-02-18T11:54:16;5.05;;;2.78;;
13321;SDS011;6730;46.248;6.930;2023-02-18T11:56:57;3.72;;;2.67;;
13321;SDS011;6730;46.248;6.930;2023-02-18T11:59:26;4.07;;;3.20;;
13321;SDS011;6730;46.248;6.930;2023-02-18T12:02:00;7.07;;;2.60;;
13321;SDS011;6730;46.248;6.930;2023-02-18T12:07:21;3.00;;;2.13;;
13321;SDS011;6730;46.248;6.930;2023-02-18T12:10:02;4.47;;;3.00;;
13321;SDS011;6730;46.248;6.930;2023-02-18T12:12:39;4.45;;;2.40;;
13321;SDS011;6730;46.248;6.930;2023-02-18T12:15:16;3.55;;;2.67;;
13321;SDS011;6730;46.248;6.930;2023-02-18T12:20:53;5.50;;;2.60;;
13321;SDS011;6730;46.248;6.930;2023-02-18T12:32:02;5.57;;;2.72;;
13321;SDS011;6730;46.248;6.930;2023-02-18T12:40:17;5.38;;;2.50;;
13321;SDS011;6730;46.248;6.930;2023-02-18T12:48:22;3.78;;;2.90;;
13321;SDS011;6730;46.248;6.930;2023-02-18T13:12:07;3.10;;;2.80;;
13321;SDS011;6730;46.248;6.930;2023-02-18T13:14:48;3.08;;;2.55;;
13321;SDS011;6730;46.248;6.930;2023-02-18T13:17:21;5.30;;;3.28;;
13321;SDS011;6730;46.248;6.930;2023-02-18T13:22:48;4.80;;;3.00;;
13321;SDS011;6730;46.248;6.930;2023-02-18T13:25:15;5.72;;;3.63;;
13321;SDS011;6730;46.248;6.930;2023-02-18T13:27:44;4.95;;;3.10;;
13321;SDS011;6730;46.248;6.930;2023-02-18T13:30:51;8.43;;;3.47;;
13321;SDS011;6730;46.248;6.930;2023-02-18T13:39:27;6.03;;;3.78;;
13321;SDS011;6730;46.248;6.930;2023-02-18T13:42:09;4.35;;;3.53;;
13321;SDS011;6730;46.248;6.930;2023-02-18T13:52:50;4.53;;;3.30;;
13321;SDS011;6730;46.248;6.930;2023-02-18T13:55:49;3.38;;;2.58;;
13321;SDS011;6730;46.248;6.930;2023-02-18T13:58:22;5.40;;;3.88;;
13321;SDS011;6730;46.248;6.930;2023-02-18T14:03:38;4.32;;;2.90;;
13321;SDS011;6730;46.248;6.930;2023-02-18T14:06:27;4.68;;;3.22;;
13321;SDS011;6730;46.248;6.930;2023-02-18T14:09:33;4.32;;;3.28;;
13321;SDS011;6730;46.248;6.930;2023-02-18T14:11:53;5.47;;;3.30;;
13321;SDS011;6730;46.248;6.930;2023-02-18T14:27:39;4.03;;;2.90;;
13321;SDS011;6730;46.248;6.930;2023-02-18T14:30:07;5.30;;;3.15;;
13321;SDS011;6730;46.248;6.930;2023-02-18T14:32:46;3.38;;;3.00;;
13321;SDS011;6730;46.248;6.930;2023-02-18T14:40:53;4.40;;;3.45;;
13321;SDS011;6730;46.248;6.930;2023-02-18T14:51:24;6.45;;;3.10;;
13321;SDS011;6730;46.248;6.930;2023-02-18T14:53:53;6.93;;;3.45;;
13321;SDS011;6730;46.248;6.930;2023-02-18T14:56:20;3.65;;;3.08;;
13321;SDS011;6730;46.248;6.930;2023-02-18T14:58:47;5.10;;;2.97;;
13321;SDS011;6730;46.248;6.930;2023-02-18T15:01:27;3.78;;;3.30;;
13321;SDS011;6730;46.248;6.930;2023-02-18T15:03:55;4.35;;;3.03;;
13321;SDS011;6730;46.248;6.930;2023-02-18T15:08:53;4.25;;;2.72;;
13321;SDS011;6730;46.248;6.930;2023-02-18T15:11:20;4.93;;;3.17;;
13321;SDS011;6730;46.248;6.930;2023-02-18T15:13:49;4.13;;;2.47;;
13321;SDS011;6730;46.248;6.930;2023-02-18T15:16:18;4.57;;;3.28;;
13321;SDS011;6730;46.248;6.930;2023-02-18T15:18:55;4.28;;;2.40;;
13321;SDS011;6730;46.248;6.930;2023-02-18T15:21:39;4.05;;;2.67;;
13321;SDS011;6730;46.248;6.930;2023-02-18T15:24:08;2.20;;;2.00;;
13321;SDS011;6730;46.248;6.930;2023-02-18T15:26:40;2.80;;;1.90;;
13321;SDS011;6730;46.248;6.930;2023-02-18T15:29:14;2.22;;;1.90;;
13321;SDS011;6730;46.248;6.930;2023-02-18T15:31:44;5.07;;;2.17;;
13321;SDS011;6730;46.248;6.930;2023-02-18T15:36:49;2.60;;;2.08;;
13321;SDS011;6730;46.248;6.930;2023-02-18T15:39:16;3.33;;;2.10;;
13321;SDS011;6730;46.248;6.930;2023-02-18T15:41:41;2.92;;;1.88;;
13321;SDS011;6730;46.248;6.930;2023-02-18T15:44:07;3.97;;;1.92;;
13321;SDS011;6730;46.248;6.930;2023-02-18T15:46:33;3.35;;;1.92;;
13321;SDS011;6730;46.248;6.930;2023-02-18T15:48:59;2.38;;;1.83;;
13321;SDS011;6730;46.248;6.930;2023-02-18T15:51:28;2.50;;;1.80;;
13321;SDS011;6730;46.248;6.930;2023-02-18T15:53:56;3.10;;;2.03;;
13321;SDS011;6730;46.248;6.930;2023-02-18T15:56:38;2.00;;;1.80;;
13321;SDS011;6730;46.248;6.930;2023-02-18T16:01:39;2.65;;;1.90;;
13321;SDS011;6730;46.248;6.930;2023-02-18T16:04:05;3.17;;;2.10;;
13321;SDS011;6730;46.248;6.930;2023-02-18T16:06:36;2.55;;;2.00;;
13321;SDS011;6730;46.248;6.930;2023-02-18T16:11:38;2.45;;;1.55;;
13321;SDS011;6730;46.248;6.930;2023-02-18T16:14:06;2.40;;;1.55;;
13321;SDS011;6730;46.248;6.930;2023-02-18T16:16:35;3.13;;;1.77;;
13321;SDS011;6730;46.248;6.930;2023-02-18T16:19:03;1.67;;;1.17;;
13321;SDS011;6730;46.248;6.930;2023-02-18T16:21:30;3.15;;;1.40;;
13321;SDS011;6730;46.248;6.930;2023-02-18T16:23:59;1.40;;;1.00;;
13321;SDS011;6730;46.248;6.930;2023-02-18T16:29:03;1.50;;;1.20;;
13321;SDS011;6730;46.248;6.930;2023-02-18T16:31:59;1.20;;;1.10;;
13321;SDS011;6730;46.248;6.930;2023-02-18T16:34:25;2.38;;;1.40;;
13321;SDS011;6730;46.248;6.930;2023-02-18T16:36:51;3.60;;;1.58;;
13321;SDS011;6730;46.248;6.930;2023-02-18T16:39:36;2.03;;;1.67;;
13321;SDS011;6730;46.248;6.930;2023-02-18T16:42:02;2.92;;;2.05;;
13321;SDS011;6730;46.248;6.930;2023-02-18T16:44:32;2.13;;;1.70;;
13321;SDS011;6730;46.248;6.930;2023-02-18T16:46:58;2.60;;;2.03;;
13321;SDS011;6730;46.248;6.930;2023-02-18T16:49:23;2.33;;;1.90;;
13321;SDS011;6730;46.248;6.930;2023-02-18T16:51:49;2.30;;;1.70;;
13321;SDS011;6730;46.248;6.930;2023-02-18T16:54:15;1.98;;;1.50;;
13321;SDS011;6730;46.248;6.930;2023-02-18T16:56:41;2.05;;;1.85;;
13321;SDS011;6730;46.248;6.930;2023-02-18T16:59:06;2.35;;;1.45;;
13321;SDS011;6730;46.248;6.930;2023-02-18T17:01:33;1.58;;;1.48;;
13321;SDS011;6730;46.248;6.930;2023-02-18T17:04:11;3.47;;;1.50;;
13321;SDS011;6730;46.248;6.930;2023-02-18T17:06:41;2.78;;;1.23;;
13321;SDS011;6730;46.248;6.930;2023-02-18T17:09:16;1.42;;;1.25;;
13321;SDS011;6730;46.248;6.930;2023-02-18T17:11:45;1.42;;;1.33;;
13321;SDS011;6730;46.248;6.930;2023-02-18T17:14:15;1.48;;;1.08;;
13321;SDS011;6730;46.248;6.930;2023-02-18T17:16:44;1.60;;;1.38;;
13321;SDS011;6730;46.248;6.930;2023-02-18T17:19:10;2.00;;;1.70;;
13321;SDS011;6730;46.248;6.930;2023-02-18T17:21:35;3.95;;;1.92;;
13321;SDS011;6730;46.248;6.930;2023-02-18T17:24:01;4.38;;;2.42;;
13321;SDS011;6730;46.248;6.930;2023-02-18T17:26:28;3.25;;;2.45;;
13321;SDS011;6730;46.248;6.930;2023-02-18T17:28:55;3.15;;;2.25;;
13321;SDS011;6730;46.248;6.930;2023-02-18T17:31:26;8.85;;;5.85;;
13321;SDS011;6730;46.248;6.930;2023-02-18T17:33:54;8.93;;;6.00;;
13321;SDS011;6730;46.248;6.930;2023-02-18T17:36:22;5.53;;;4.85;;
13321;SDS011;6730;46.248;6.930;2023-02-18T17:38:48;6.68;;;5.53;;
13321;SDS011;6730;46.248;6.930;2023-02-18T17:41:14;18.10;;;11.50;;
13321;SDS011;6730;46.248;6.930;2023-02-18T17:43:40;16.70;;;11.70;;
13321;SDS011;6730;46.248;6.930;2023-02-18T17:46:13;13.10;;;9.02;;
13321;SDS011;6730;46.248;6.930;2023-02-18T17:48:40;11.27;;;7.30;;
13321;SDS011;6730;46.248;6.930;2023-02-18T17:51:09;10.00;;;6.47;;
13321;SDS011;6730;46.248;6.930;2023-02-18T17:53:42;6.13;;;5.20;;
13321;SDS011;6730;46.248;6.930;2023-02-18T17:56:08;9.38;;;6.72;;
13321;SDS011;6730;46.248;6.930;2023-02-18T17:58:36;12.98;;;8.50;;
13321;SDS011;6730;46.248;6.930;2023-02-18T18:01:02;15.52;;;10.13;;
13321;SDS011;6730;46.248;6.930;2023-02-18T18:03:28;8.23;;;6.20;;
13321;SDS011;6730;46.248;6.930;2023-02-18T18:05:53;7.15;;;5.30;;
13321;SDS011;6730;46.248;6.930;2023-02-18T18:08:21;6.07;;;4.57;;
13321;SDS011;6730;46.248;6.930;2023-02-18T18:10:51;4.85;;;3.10;;
13321;SDS011;6730;46.248;6.930;2023-02-18T18:13:22;3.50;;;2.60;;
13321;SDS011;6730;46.248;6.930;2023-02-18T18:15:49;18.90;;;10.15;;
13321;SDS011;6730;46.248;6.930;2023-02-18T18:18:15;7.63;;;4.75;;
13321;SDS011;6730;46.248;6.930;2023-02-18T18:20:45;15.63;;;9.40;;